Time;durP1;ratioP1;P1;durP2;ratioP2;P2;SDS_P1;SDS_P2;PMS_P1;PMS_P2;Temp;Humidity;BMP_temperature;BMP_pressure;BME280_temperature;BME280_humidity;BME280_pressure;Samples;Min_cycle;Max_cycle;Signal;HPM_P1;HPM_P2
2022/08/08 00:01:29;;;;;;;7.90;5.20;;;17.90;99.90;;;;;;5019467;28;20216;-48
2022/08/08 00:05:01;;;;;;;5.70;4.70;;;17.80;99.90;;;;;;5020062;28;20220;-48
2022/08/08 00:07:39;;;;;;;9.97;4.50;;;17.70;99.90;;;;;;5017832;28;20215;-49
2022/08/08 00:10:40;;;;;;;7.33;5.23;;;17.70;99.90;;;;;;5021020;28;20589;-50
2022/08/08 00:13:33;;;;;;;6.83;5.00;;;17.70;99.90;;;;;;5021186;28;20205;-47
2022/08/08 00:16:31;;;;;;;9.47;5.20;;;17.60;99.90;;;;;;5021232;28;20620;-47
2022/08/08 00:19:13;;;;;;;7.83;5.97;;;17.50;99.90;;;;;;5018707;28;20238;-48
2022/08/08 00:21:49;;;;;;;8.10;5.90;;;17.50;99.90;;;;;;5016145;28;20674;-49
2022/08/08 00:24:30;;;;;;;6.20;5.47;;;17.50;99.90;;;;;;5018613;28;20216;-50
2022/08/08 00:27:04;;;;;;;6.17;5.03;;;17.40;99.90;;;;;;5019925;28;20208;-49
2022/08/08 00:29:54;;;;;;;7.00;5.23;;;17.40;99.90;;;;;;5021002;28;20226;-47
2022/08/08 00:32:55;;;;;;;8.93;5.00;;;17.30;99.90;;;;;;5018205;28;20205;-48
2022/08/08 00:35:23;;;;;;;6.33;5.17;;;17.40;99.90;;;;;;5019617;28;20209;-48
2022/08/08 00:38:11;;;;;;;9.97;5.60;;;17.40;99.90;;;;;;5014960;28;20259;-49
2022/08/08 00:41:14;;;;;;;8.30;5.53;;;17.40;99.90;;;;;;5021672;28;20263;-49
2022/08/08 00:44:22;;;;;;;6.83;5.50;;;17.30;99.90;;;;;;5021006;28;20220;-49
2022/08/08 00:47:06;;;;;;;9.37;5.37;;;17.30;99.90;;;;;;5018687;28;20221;-48
2022/08/08 00:50:26;;;;;;;7.77;5.57;;;17.50;99.90;;;;;;5019554;28;20235;-49
2022/08/08 00:53:16;;;;;;;8.73;5.83;;;17.60;99.90;;;;;;5019152;28;20278;-51
2022/08/08 00:55:52;;;;;;;7.53;5.63;;;17.60;99.90;;;;;;5019572;28;20229;-49
2022/08/08 00:58:42;;;;;;;7.50;6.00;;;17.70;99.90;;;;;;5033538;28;20204;-50
2022/08/08 01:01:36;;;;;;;6.33;5.57;;;17.70;99.90;;;;;;5019073;28;20204;-48
2022/08/08 01:04:42;;;;;;;9.67;5.20;;;17.70;99.90;;;;;;5019251;28;20212;-49
2022/08/08 01:07:44;;;;;;;6.97;5.97;;;17.80;99.90;;;;;;5035329;28;20263;-49
2022/08/08 01:10:31;;;;;;;10.50;6.17;;;17.70;99.90;;;;;;5020021;28;20717;-49
2022/08/08 01:13:36;;;;;;;11.80;5.90;;;17.70;99.90;;;;;;5018817;28;20244;-50
2022/08/08 01:16:17;;;;;;;9.03;6.33;;;17.60;99.90;;;;;;5019350;28;20289;-52
2022/08/08 01:19:08;;;;;;;9.43;6.57;;;17.50;99.90;;;;;;5020009;28;20289;-50
2022/08/08 01:22:09;;;;;;;12.90;6.63;;;17.50;99.90;;;;;;5018849;28;20201;-52
2022/08/08 01:24:58;;;;;;;9.23;6.50;;;17.50;99.90;;;;;;5019525;28;20244;-50
2022/08/08 01:28:09;;;;;;;11.70;6.43;;;17.20;99.90;;;;;;5018712;28;20709;-47
2022/08/08 01:31:14;;;;;;;7.93;6.57;;;17.30;99.90;;;;;;4993246;28;20278;-49
2022/08/08 01:34:38;;;;;;;10.87;6.27;;;17.30;99.90;;;;;;5017002;28;20209;-50
2022/08/08 01:37:44;;;;;;;9.50;6.47;;;17.40;99.90;;;;;;5018845;28;20661;-47
2022/08/08 01:40:32;;;;;;;8.47;6.07;;;17.30;99.90;;;;;;5019580;28;20212;-50
2022/08/08 01:43:29;;;;;;;7.13;6.43;;;17.20;99.90;;;;;;5020134;28;20243;-49
2022/08/08 01:46:26;;;;;;;7.67;6.20;;;17.40;99.90;;;;;;5019496;28;20204;-49
2022/08/08 01:49:13;;;;;;;7.93;6.43;;;17.20;99.90;;;;;;5017946;28;20236;-50
2022/08/08 01:52:33;;;;;;;6.97;5.57;;;17.20;99.90;;;;;;5018659;28;20205;-49
2022/08/08 01:55:34;;;;;;;8.57;6.37;;;17.40;99.90;;;;;;5007157;28;20244;-47
2022/08/08 01:59:01;;;;;;;8.97;6.50;;;17.30;99.90;;;;;;5006839;28;20215;-48
2022/08/08 02:01:59;;;;;;;10.13;6.37;;;17.20;99.90;;;;;;4990498;28;20611;-49
2022/08/08 02:05:01;;;;;;;7.50;6.00;;;17.30;99.90;;;;;;5006936;28;20780;-49
2022/08/08 02:07:54;;;;;;;6.87;5.70;;;17.20;99.90;;;;;;5006651;28;20201;-49
2022/08/08 02:10:38;;;;;;;8.60;6.07;;;17.30;99.90;;;;;;5007546;28;20229;-47
2022/08/08 02:13:33;;;;;;;7.10;5.67;;;17.30;99.90;;;;;;5007123;28;20201;-47
2022/08/08 02:16:32;;;;;;;8.50;6.17;;;17.20;99.90;;;;;;4993172;28;20213;-48
2022/08/08 02:19:12;;;;;;;7.03;5.70;;;17.20;99.90;;;;;;5006040;28;20205;-52
2022/08/08 02:22:30;;;;;;;9.77;6.10;;;17.30;99.90;;;;;;5006530;28;20209;-51
2022/08/08 02:25:23;;;;;;;6.73;5.87;;;17.30;99.90;;;;;;5007585;28;20201;-52
2022/08/08 02:28:16;;;;;;;9.50;6.70;;;17.20;99.90;;;;;;5011808;28;20247;-50
2022/08/08 02:31:07;;;;;;;7.63;5.73;;;17.00;99.90;;;;;;5020672;28;20240;-50
2022/08/08 02:34:19;;;;;;;9.63;5.67;;;16.90;99.90;;;;;;5021646;28;20208;-52
2022/08/08 02:37:23;;;;;;;7.57;5.33;;;17.00;99.90;;;;;;5022473;28;20204;-52
2022/08/08 02:40:18;;;;;;;8.27;5.73;;;16.90;99.90;;;;;;5020081;28;20217;-48
2022/08/08 02:42:48;;;;;;;8.57;5.50;;;17.00;99.90;;;;;;5022408;28;20204;-47
2022/08/08 02:45:50;;;;;;;8.00;5.80;;;16.90;99.90;;;;;;5022882;28;20208;-48
2022/08/08 02:48:23;;;;;;;6.50;5.53;;;16.80;99.90;;;;;;5036145;28;20216;-49
2022/08/08 02:51:29;;;;;;;6.77;5.70;;;16.80;99.90;;;;;;5021919;28;20225;-50
2022/08/08 02:54:50;;;;;;;7.67;5.83;;;16.80;99.90;;;;;;5034329;28;20249;-49
2022/08/08 02:57:25;;;;;;;11.17;5.97;;;16.80;99.90;;;;;;5022074;28;20208;-50
2022/08/08 03:00:27;;;;;;;8.67;6.57;;;16.70;99.90;;;;;;5021542;28;20209;-52
2022/08/08 03:04:06;;;;;;;7.40;5.33;;;16.50;99.90;;;;;;5021543;28;20618;-49
2022/08/08 03:06:55;;;;;;;6.57;5.70;;;16.50;99.90;;;;;;5020627;28;20664;-50
2022/08/08 03:09:50;;;;;;;7.23;5.03;;;16.60;99.90;;;;;;5020741;28;20227;-51
2022/08/08 03:12:54;;;;;;;10.10;5.63;;;16.60;99.90;;;;;;5022272;28;20205;-47
2022/08/08 03:15:57;;;;;;;9.53;5.40;;;16.70;99.90;;;;;;5023401;28;20212;-49
2022/08/08 03:18:36;;;;;;;7.00;4.90;;;16.70;99.90;;;;;;5021553;28;20412;-50
2022/08/08 03:21:05;;;;;;;7.63;5.37;;;16.80;99.90;;;;;;5020107;28;20217;-48
2022/08/08 03:23:40;;;;;;;6.43;5.40;;;16.90;99.90;;;;;;5035391;28;20200;-50
2022/08/08 03:26:34;;;;;;;8.37;5.40;;;16.80;99.90;;;;;;5020730;28;20209;-48
2022/08/08 03:29:18;;;;;;;10.13;5.90;;;16.80;99.90;;;;;;5021091;28;20209;-47
2022/08/08 03:34:56;;;;;;;7.97;5.30;;;16.80;99.90;;;;;;5020292;28;20241;-48
2022/08/08 03:37:24;;;;;;;8.23;6.03;;;16.90;99.90;;;;;;5021472;28;20574;-47
2022/08/08 03:40:16;;;;;;;8.67;5.67;;;16.90;99.90;;;;;;5020117;28;20212;-48
2022/08/08 03:42:58;;;;;;;8.90;5.63;;;16.90;99.90;;;;;;5034939;28;20216;-47
2022/08/08 03:45:44;;;;;;;5.97;5.13;;;16.80;99.90;;;;;;5020276;28;20296;-48
2022/08/08 03:48:32;;;;;;;7.43;5.27;;;16.90;99.90;;;;;;5021976;28;20922;-49
2022/08/08 03:51:19;;;;;;;8.70;5.63;;;16.90;99.90;;;;;;5020601;28;20240;-54
2022/08/08 03:54:09;;;;;;;8.23;6.00;;;16.80;99.90;;;;;;5020802;28;20240;-49
2022/08/08 03:56:59;;;;;;;6.90;5.90;;;16.70;99.90;;;;;;5006403;28;20386;-49
2022/08/08 03:59:46;;;;;;;7.00;4.83;;;16.70;99.90;;;;;;5021068;28;20219;-47
2022/08/08 04:02:33;;;;;;;8.07;4.77;;;16.80;99.90;;;;;;5019494;28;20210;-48
2022/08/08 04:05:13;;;;;;;7.37;5.40;;;16.80;99.90;;;;;;5020235;28;20253;-47
2022/08/08 04:07:58;;;;;;;8.37;5.77;;;16.70;99.90;;;;;;5004833;28;20221;-49
2022/08/08 04:10:31;;;;;;;11.03;6.10;;;16.70;99.90;;;;;;5021363;28;20219;-49
2022/08/08 04:13:00;;;;;;;9.90;6.03;;;16.70;99.90;;;;;;5018526;28;20210;-48
2022/08/08 04:15:44;;;;;;;8.93;6.10;;;16.70;99.90;;;;;;5020531;28;20252;-47
2022/08/08 04:18:30;;;;;;;8.50;5.90;;;16.60;99.90;;;;;;5021473;28;20653;-47
2022/08/08 04:21:11;;;;;;;7.87;6.23;;;16.60;99.90;;;;;;5019731;28;20209;-48
2022/08/08 04:23:41;;;;;;;9.07;6.43;;;16.60;99.90;;;;;;5018828;28;20210;-46
2022/08/08 04:26:28;;;;;;;8.53;5.77;;;16.60;99.90;;;;;;5019599;28;20232;-47
2022/08/08 04:29:18;;;;;;;9.37;6.70;;;16.60;99.90;;;;;;5021384;28;20244;-48
2022/08/08 04:31:46;;;;;;;9.57;7.30;;;16.70;99.90;;;;;;5017770;28;20230;-49
2022/08/08 04:34:29;;;;;;;7.80;6.67;;;16.60;99.90;;;;;;5020509;28;20722;-49
2022/08/08 04:37:09;;;;;;;10.30;7.67;;;16.40;99.90;;;;;;5019617;28;20214;-49
2022/08/08 04:39:39;;;;;;;7.27;6.43;;;16.40;99.90;;;;;;5015808;28;20201;-48
2022/08/08 04:42:30;;;;;;;10.37;7.07;;;16.50;99.90;;;;;;5021593;28;20627;-48
2022/08/08 04:45:01;;;;;;;11.37;7.43;;;16.50;99.90;;;;;;5021067;28;20700;-49
2022/08/08 04:47:30;;;;;;;11.20;7.87;;;16.50;99.90;;;;;;5020928;28;20216;-48
2022/08/08 04:50:06;;;;;;;9.60;8.00;;;16.40;99.90;;;;;;5020164;28;20228;-48
2022/08/08 04:52:49;;;;;;;9.40;7.30;;;16.30;99.90;;;;;;5020258;28;20205;-48
2022/08/08 04:55:32;;;;;;;13.13;7.30;;;16.20;99.90;;;;;;5019936;28;20628;-47
2022/08/08 04:58:22;;;;;;;8.27;7.40;;;16.20;99.90;;;;;;5020278;28;20209;-47
2022/08/08 05:00:53;;;;;;;9.90;6.90;;;16.30;99.90;;;;;;5016314;28;20292;-46
2022/08/08 05:03:34;;;;;;;9.80;7.97;;;16.40;99.90;;;;;;5017274;28;20228;-48
2022/08/08 05:06:22;;;;;;;9.87;7.57;;;16.40;99.90;;;;;;5020027;28;20216;-48
2022/08/08 05:08:57;;;;;;;9.40;7.30;;;16.30;99.90;;;;;;5019746;28;20650;-48
2022/08/08 05:11:32;;;;;;;11.60;7.00;;;16.30;99.90;;;;;;5018786;28;20212;-48
2022/08/08 05:14:07;;;;;;;8.77;7.10;;;16.20;99.90;;;;;;5020814;28;20201;-49
2022/08/08 05:16:38;;;;;;;13.03;7.13;;;16.20;99.90;;;;;;5019813;28;20208;-47
2022/08/08 05:19:22;;;;;;;11.13;7.30;;;16.30;99.90;;;;;;5018393;28;20201;-49
2022/08/08 05:22:12;;;;;;;10.87;6.73;;;16.30;99.90;;;;;;5019414;28;20255;-47
2022/08/08 05:24:43;;;;;;;9.20;7.40;;;16.40;99.90;;;;;;5017680;28;20207;-47
2022/08/08 05:27:19;;;;;;;8.93;7.30;;;16.30;99.90;;;;;;5019011;28;20205;-48
2022/08/08 05:29:48;;;;;;;11.90;7.33;;;16.30;99.90;;;;;;5019502;28;20310;-48
2022/08/08 05:32:23;;;;;;;9.57;7.00;;;16.40;99.90;;;;;;5018705;28;20204;-51
2022/08/08 05:35:16;;;;;;;13.47;6.70;;;16.40;99.90;;;;;;5019575;28;20201;-49
2022/08/08 05:38:14;;;;;;;9.13;6.73;;;16.40;99.90;;;;;;5019479;28;20200;-48
2022/08/08 05:40:59;;;;;;;11.43;6.20;;;16.50;99.90;;;;;;5018426;28;20218;-49
2022/08/08 05:43:32;;;;;;;8.40;6.77;;;16.60;99.90;;;;;;5019069;28;20240;-49
2022/08/08 05:46:21;;;;;;;10.37;7.10;;;16.70;99.90;;;;;;5019574;28;20216;-48
2022/08/08 05:48:56;;;;;;;9.27;6.87;;;16.60;99.90;;;;;;5025987;28;20208;-49
2022/08/08 05:51:26;;;;;;;8.80;6.57;;;16.60;99.90;;;;;;5019123;28;20248;-47
2022/08/08 05:54:15;;;;;;;7.20;5.87;;;16.70;99.90;;;;;;5017731;28;20236;-48
2022/08/08 05:57:05;;;;;;;8.47;6.00;;;16.90;99.90;;;;;;5018126;28;20305;-50
2022/08/08 05:59:37;;;;;;;6.63;5.53;;;16.90;99.90;;;;;;5019954;28;20259;-49
2022/08/08 06:05:19;;;;;;;11.97;5.97;;;17.00;99.90;;;;;;5023456;28;20208;-48
2022/08/08 06:08:03;;;;;;;11.77;5.23;;;17.20;99.90;;;;;;5023038;28;20263;-50
2022/08/08 06:10:54;;;;;;;9.77;5.10;;;17.30;99.90;;;;;;5021606;28;20720;-47
2022/08/08 06:13:22;;;;;;;8.50;4.77;;;17.30;99.90;;;;;;5016373;28;20719;-49
2022/08/08 06:15:55;;;;;;;7.20;4.37;;;17.40;99.90;;;;;;5021563;28;20218;-47
2022/08/08 06:18:29;;;;;;;10.93;4.63;;;17.50;99.90;;;;;;5022565;28;20204;-49
2022/08/08 06:20:59;;;;;;;5.90;4.43;;;17.60;99.90;;;;;;5021421;28;20212;-47
2022/08/08 06:23:47;;;;;;;5.67;4.40;;;17.60;99.90;;;;;;5021085;28;20212;-49
2022/08/08 06:26:37;;;;;;;5.17;4.13;;;17.60;99.90;;;;;;5021386;28;20216;-47
2022/08/08 06:29:29;;;;;;;7.83;4.27;;;17.60;99.90;;;;;;5022495;28;20212;-50
2022/08/08 06:32:30;;;;;;;5.50;4.10;;;17.80;99.90;;;;;;5022692;28;20213;-48
2022/08/08 06:35:03;;;;;;;7.13;3.60;;;17.80;99.90;;;;;;5023651;28;20217;-48
2022/08/08 06:37:59;;;;;;;4.40;3.50;;;17.90;99.90;;;;;;5022497;28;20684;-49
2022/08/08 06:40:32;;;;;;;4.53;3.67;;;18.00;99.90;;;;;;5021893;28;20196;-49
2022/08/08 06:43:08;;;;;;;5.50;3.50;;;18.00;99.90;;;;;;5022069;28;20234;-48
2022/08/08 06:45:41;;;;;;;4.90;3.70;;;18.10;99.90;;;;;;5016290;28;20209;-49
2022/08/08 06:48:23;;;;;;;5.80;3.27;;;18.20;99.90;;;;;;5018400;28;20762;-49
2022/08/08 06:50:54;;;;;;;8.53;3.47;;;18.40;99.90;;;;;;5023282;28;20267;-49
2022/08/08 06:53:26;;;;;;;6.07;3.53;;;18.60;99.90;;;;;;5022451;28;20609;-48
2022/08/08 06:56:13;;;;;;;7.80;3.60;;;18.90;99.90;;;;;;5021083;28;20208;-49
2022/08/08 06:59:05;;;;;;;6.40;3.60;;;19.10;99.90;;;;;;5023295;28;20300;-48
2022/08/08 07:02:04;;;;;;;3.70;2.50;;;19.00;99.90;;;;;;5021163;28;20217;-48
2022/08/08 07:04:56;;;;;;;5.50;2.57;;;18.80;99.90;;;;;;5020096;28;20217;-48
2022/08/08 07:07:51;;;;;;;8.27;2.70;;;19.10;99.90;;;;;;5020914;28;20201;-47
2022/08/08 07:10:32;;;;;;;3.90;2.20;;;19.20;99.90;;;;;;5021576;28;20263;-48
2022/08/08 07:13:03;;;;;;;3.77;2.07;;;19.50;99.90;;;;;;5022319;28;20204;-48
2022/08/08 07:15:46;;;;;;;2.87;1.70;;;20.00;99.90;;;;;;5021439;28;20653;-48
2022/08/08 07:18:54;;;;;;;3.13;1.80;;;19.80;99.90;;;;;;5021107;28;20205;-49
2022/08/08 07:21:28;;;;;;;2.13;1.93;;;19.60;99.90;;;;;;5021366;28;20252;-49
2022/08/08 07:24:12;;;;;;;3.43;1.70;;;19.80;99.90;;;;;;5020772;28;20196;-51
2022/08/08 07:26:45;;;;;;;4.50;1.97;;;19.60;99.90;;;;;;5021157;28;20209;-48
2022/08/08 07:29:17;;;;;;;3.00;1.70;;;19.90;99.90;;;;;;5020667;28;20205;-48
2022/08/08 07:32:09;;;;;;;1.63;1.43;;;20.20;99.90;;;;;;5020436;28;20652;-48
2022/08/08 07:34:44;;;;;;;6.00;1.77;;;20.20;99.90;;;;;;5017915;28;20204;-50
2022/08/08 07:37:37;;;;;;;2.87;1.60;;;20.20;99.90;;;;;;5021191;28;20201;-50
2022/08/08 07:40:26;;;;;;;4.50;2.00;;;20.30;99.90;;;;;;5020938;28;20208;-48
2022/08/08 07:43:02;;;;;;;3.00;2.00;;;20.00;99.90;;;;;;5022039;28;20707;-49
2022/08/08 07:45:36;;;;;;;3.37;1.70;;;20.00;99.90;;;;;;5021244;28;20561;-48
2022/08/08 07:48:23;;;;;;;2.93;1.53;;;20.10;99.90;;;;;;5019927;28;20216;-49
2022/08/08 07:50:59;;;;;;;3.60;1.73;;;20.20;99.90;;;;;;5019462;28;20633;-47
2022/08/08 07:53:58;;;;;;;6.27;1.53;;;20.10;99.90;;;;;;5019357;28;20317;-47
2022/08/08 07:56:40;;;;;;;1.90;1.63;;;20.20;99.90;;;;;;5020160;28;20245;-51
2022/08/08 07:59:15;;;;;;;2.43;1.90;;;20.40;99.90;;;;;;5022074;28;20208;-50
2022/08/08 08:02:05;;;;;;;6.27;2.63;;;20.30;99.90;;;;;;5020678;28;20656;-48
2022/08/08 08:04:57;;;;;;;8.57;2.23;;;20.40;99.90;;;;;;5019738;28;20208;-49
2022/08/08 08:07:25;;;;;;;3.33;1.87;;;20.80;99.90;;;;;;5021427;28;20235;-50
2022/08/08 08:10:04;;;;;;;3.00;1.57;;;20.60;99.90;;;;;;5020479;28;20233;-50
2022/08/08 08:12:34;;;;;;;6.97;1.93;;;21.10;99.90;;;;;;5020417;28;20212;-48
2022/08/08 08:15:13;;;;;;;5.23;1.83;;;21.10;99.90;;;;;;5027065;28;20755;-47
2022/08/08 08:17:46;;;;;;;4.17;2.50;;;20.90;99.90;;;;;;5020954;28;20201;-49
2022/08/08 08:20:26;;;;;;;5.43;2.10;;;21.10;99.90;;;;;;5004821;28;20212;-50
2022/08/08 08:22:56;;;;;;;6.27;2.13;;;21.30;99.90;;;;;;5050577;28;20200;-48
2022/08/08 08:25:26;;;;;;;3.90;2.00;;;21.40;99.90;;;;;;5019360;28;20208;-50
2022/08/08 08:28:12;;;;;;;4.40;2.23;;;20.90;99.90;;;;;;5020215;28;20240;-49
2022/08/08 08:30:49;;;;;;;5.60;2.00;;;21.50;99.90;;;;;;5019307;28;20227;-50
2022/08/08 08:33:16;;;;;;;7.70;1.90;;;21.40;99.90;;;;;;5019816;28;20212;-48
2022/08/08 08:35:46;;;;;;;6.90;2.10;;;21.40;99.90;;;;;;5018591;28;20267;-48
2022/08/08 08:38:36;;;;;;;5.67;2.03;;;21.40;99.90;;;;;;5020146;28;20216;-49
2022/08/08 08:41:07;;;;;;;5.30;1.90;;;22.00;99.90;;;;;;5020252;28;20206;-48
2022/08/08 08:43:45;;;;;;;7.87;2.20;;;22.40;99.90;;;;;;5020389;28;21137;-50
2022/08/08 08:46:12;;;;;;;3.13;1.70;;;22.70;99.90;;;;;;5020144;28;20205;-49
2022/08/08 08:48:46;;;;;;;3.13;1.57;;;22.90;99.90;;;;;;5019703;28;20718;-50
2022/08/08 08:51:16;;;;;;;4.13;1.58;;;22.90;99.90;;;;;;5018562;28;20453;-50
2022/08/08 08:53:50;;;;;;;3.10;1.40;;;23.50;99.90;;;;;;5020092;28;20246;-52
2022/08/08 08:56:27;;;;;;;3.63;1.53;;;25.40;99.90;;;;;;5019846;28;20209;-51
2022/08/08 08:58:57;;;;;;;18.37;4.10;;;26.30;99.90;;;;;;5020121;28;20568;-50
2022/08/08 09:01:30;;;;;;;6.63;1.80;;;25.80;99.90;;;;;;5019355;28;20204;-50
2022/08/08 09:04:08;;;;;;;3.30;1.40;;;25.10;99.90;;;;;;5020434;28;20547;-53
2022/08/08 09:06:57;;;;;;;1.90;1.17;;;26.10;99.90;;;;;;5020656;28;20196;-50
2022/08/08 09:09:27;;;;;;;7.93;2.10;;;25.50;99.90;;;;;;5019789;28;20603;-49
2022/08/08 09:12:15;;;;;;;4.50;1.57;;;24.80;99.90;;;;;;5019977;28;20228;-51
2022/08/08 09:14:47;;;;;;;5.22;1.50;;;26.00;99.90;;;;;;5021009;28;20270;-51
2022/08/08 09:17:17;;;;;;;2.92;1.25;;;26.40;99.90;;;;;;5019444;28;20205;-51
2022/08/08 09:20:05;;;;;;;2.80;1.25;;;27.30;99.90;;;;;;5019298;28;20677;-50
2022/08/08 09:22:55;;;;;;;5.88;1.30;;;26.70;99.90;;;;;;5020285;28;20240;-51
2022/08/08 09:25:25;;;;;;;3.50;1.90;;;27.60;99.90;;;;;;5018423;28;20213;-51
2022/08/08 09:28:02;;;;;;;6.57;1.70;;;26.90;99.90;;;;;;5019429;28;20215;-51
2022/08/08 09:30:35;;;;;;;2.30;1.20;;;26.90;99.90;;;;;;5018956;28;20295;-51
2022/08/08 09:33:08;;;;;;;4.03;1.20;;;25.70;99.90;;;;;;5019585;28;20285;-51
2022/08/08 09:35:56;;;;;;;4.82;1.27;;;25.20;99.90;;;;;;5022151;28;20300;-51
2022/08/08 09:38:51;;;;;;;2.15;1.30;;;24.60;99.90;;;;;;5007769;28;20232;-50
2022/08/08 09:41:36;;;;;;;4.93;1.58;;;25.00;99.90;;;;;;5022039;28;20247;-52
2022/08/08 09:44:45;;;;;;;1.98;1.23;;;23.20;99.90;;;;;;5022145;28;20266;-53
2022/08/08 09:47:14;;;;;;;2.63;1.20;;;22.70;99.90;;;;;;5023796;28;20250;-52
2022/08/08 09:50:13;;;;;;;1.48;1.00;;;23.90;99.90;;;;;;5029333;28;20224;-51
2022/08/08 09:52:46;;;;;;;2.67;1.38;;;24.90;99.90;;;;;;5022920;28;20273;-54
2022/08/08 09:55:29;;;;;;;1.93;1.10;;;24.40;99.90;;;;;;5022514;28;20255;-51
2022/08/08 09:58:20;;;;;;;2.77;1.10;;;24.80;99.90;;;;;;5021813;28;20207;-51
2022/08/08 10:01:08;;;;;;;2.60;1.20;;;24.60;99.90;;;;;;5022018;28;20752;-52
2022/08/08 10:04:00;;;;;;;1.80;0.70;;;23.80;99.90;;;;;;5023114;28;20291;-53
2022/08/08 10:06:31;;;;;;;2.70;0.87;;;24.10;99.90;;;;;;5022984;28;20630;-52
2022/08/08 10:09:04;;;;;;;4.43;1.13;;;24.10;99.90;;;;;;5023206;28;20213;-50
2022/08/08 10:11:37;;;;;;;3.47;1.00;;;24.20;99.90;;;;;;5021692;28;20219;-52
2022/08/08 10:14:35;;;;;;;2.63;1.20;;;24.60;99.90;;;;;;5008073;28;20235;-51
2022/08/08 10:17:08;;;;;;;2.47;1.10;;;24.20;99.90;;;;;;5018509;28;20629;-51
2022/08/08 10:19:59;;;;;;;4.13;1.40;;;24.30;99.90;;;;;;5022464;28;20263;-51
2022/08/08 10:22:28;;;;;;;2.63;1.20;;;23.70;99.90;;;;;;5020036;28;20211;-50
2022/08/08 10:25:03;;;;;;;1.90;1.20;;;23.10;99.90;;;;;;5022251;28;20203;-50
2022/08/08 10:27:42;;;;;;;3.37;1.30;;;22.70;99.90;;;;;;5021275;28;20304;-52
2022/08/08 10:30:10;;;;;;;2.20;0.80;;;22.50;99.90;;;;;;5022430;28;20235;-50
2022/08/08 10:32:58;;;;;;;0.97;0.80;;;22.40;99.90;;;;;;5022438;28;20244;-51
2022/08/08 10:35:31;;;;;;;3.17;0.93;;;22.90;99.90;;;;;;5021664;28;20573;-49
2022/08/08 10:38:19;;;;;;;1.30;0.80;;;23.70;99.90;;;;;;5022792;28;20220;-50
2022/08/08 10:40:51;;;;;;;1.60;0.67;;;23.40;99.90;;;;;;5021898;28;20208;-51
2022/08/08 10:43:19;;;;;;;1.93;0.83;;;24.00;99.90;;;;;;5019476;28;20214;-50
2022/08/08 10:45:49;;;;;;;0.80;0.67;;;24.50;99.90;;;;;;5019910;28;20214;-50
2022/08/08 10:48:34;;;;;;;1.07;0.70;;;24.70;99.90;;;;;;5021138;28;20205;-51
2022/08/08 10:51:29;;;;;;;2.73;0.50;;;24.30;99.90;;;;;;5022575;28;20240;-51
2022/08/08 10:54:20;;;;;;;0.87;0.60;;;24.10;99.90;;;;;;5021336;28;20806;-51
2022/08/08 10:57:00;;;;;;;1.73;0.60;;;24.20;99.90;;;;;;5021951;28;20220;-52
2022/08/08 10:59:30;;;;;;;1.70;0.40;;;24.40;99.90;;;;;;5021774;28;20638;-52
2022/08/08 11:02:06;;;;;;;8.73;1.53;;;24.50;99.90;;;;;;5020935;28;20214;-50
2022/08/08 11:04:44;;;;;;;6.67;1.10;;;24.10;99.90;;;;;;5021317;28;20650;-49
2022/08/08 11:07:33;;;;;;;1.87;1.00;;;23.80;99.90;;;;;;5021788;28;20210;-51
2022/08/08 11:10:23;;;;;;;50.70;6.53;;;24.00;99.90;;;;;;5021664;28;20209;-51
2022/08/08 11:13:00;;;;;;;6.20;1.60;;;24.20;99.90;;;;;;5020956;28;20682;-50
2022/08/08 11:15:48;;;;;;;24.37;2.63;;;24.40;99.90;;;;;;5020955;28;20277;-50
2022/08/08 11:18:29;;;;;;;2.73;1.20;;;24.00;99.90;;;;;;5021267;28;20242;-51
2022/08/08 11:20:59;;;;;;;3.93;1.00;;;23.90;99.90;;;;;;5022036;28;20234;-51
2022/08/08 11:23:39;;;;;;;1.33;0.80;;;23.40;99.90;;;;;;5022253;28;20213;-50
2022/08/08 11:26:09;;;;;;;4.73;1.10;;;24.10;99.90;;;;;;5020149;28;20256;-51
2022/08/08 11:28:37;;;;;;;4.57;1.00;;;24.70;99.90;;;;;;5052399;28;20214;-49
2022/08/08 11:31:07;;;;;;;3.20;0.63;;;24.70;99.90;;;;;;5017954;28;20214;-49
2022/08/08 11:33:37;;;;;;;2.87;0.70;;;25.60;99.90;;;;;;5021320;28;20313;-50
2022/08/08 11:36:24;;;;;;;2.23;0.80;;;25.80;99.90;;;;;;5026385;28;20218;-51
2022/08/08 11:38:55;;;;;;;1.67;0.90;;;26.20;99.90;;;;;;5021662;28;20708;-51
2022/08/08 11:41:23;;;;;;;2.87;0.83;;;25.90;99.90;;;;;;5021087;28;20204;-51
2022/08/08 11:43:59;;;;;;;5.00;0.93;;;27.90;99.90;;;;;;5019832;28;20209;-52
2022/08/08 11:46:28;;;;;;;1.60;0.77;;;28.70;99.90;;;;;;5020226;28;20295;-49
2022/08/08 11:49:02;;;;;;;2.80;1.13;;;28.00;99.90;;;;;;5021296;28;20267;-51
2022/08/08 11:51:34;;;;;;;1.00;0.60;;;27.60;99.90;;;;;;5021715;28;20722;-51
2022/08/08 11:54:15;;;;;;;2.08;1.00;;;27.70;99.90;;;;;;5019930;28;20586;-50
2022/08/08 11:57:17;;;;;;;1.63;1.10;;;25.90;99.90;;;;;;5020330;28;20208;-51
2022/08/08 11:59:59;;;;;;;3.28;1.05;;;24.70;99.90;;;;;;5019286;28;20244;-50
2022/08/08 12:02:47;;;;;;;2.65;1.10;;;24.10;99.90;;;;;;5020006;28;20204;-51
2022/08/08 12:05:17;;;;;;;2.05;1.38;;;23.60;99.90;;;;;;5020522;28;20571;-52
2022/08/08 12:07:54;;;;;;;2.58;1.13;;;24.50;99.90;;;;;;5020427;28;20205;-50
2022/08/08 12:10:25;;;;;;;4.43;1.05;;;24.70;99.90;;;;;;5020051;28;20196;-50
2022/08/08 12:13:01;;;;;;;2.97;0.85;;;25.30;99.90;;;;;;5020676;28;20271;-51
2022/08/08 12:15:31;;;;;;;1.00;0.90;;;25.10;99.90;;;;;;5021144;28;20204;-52
2022/08/08 12:18:17;;;;;;;3.90;0.93;;;25.00;99.90;;;;;;5020047;28;20723;-50
2022/08/08 12:20:49;;;;;;;4.30;1.20;;;24.90;99.90;;;;;;5019237;28;20227;-51
2022/08/08 12:23:29;;;;;;;1.92;0.93;;;24.60;99.90;;;;;;5020087;28;20196;-54
2022/08/08 12:26:19;;;;;;;3.47;1.00;;;24.40;99.90;;;;;;5021176;28;20200;-51
2022/08/08 12:29:01;;;;;;;1.60;0.80;;;24.00;99.90;;;;;;5026281;28;20200;-50
2022/08/08 12:31:33;;;;;;;1.60;0.80;;;24.30;99.90;;;;;;5019556;28;20201;-50
2022/08/08 12:34:33;;;;;;;1.97;0.90;;;24.60;99.90;;;;;;5025420;28;20213;-49
2022/08/08 12:37:07;;;;;;;1.47;0.90;;;24.40;99.90;;;;;;5020409;28;20235;-50
2022/08/08 12:39:37;;;;;;;1.20;0.70;;;25.60;99.90;;;;;;5020337;28;20295;-51
2022/08/08 12:42:24;;;;;;;1.70;0.73;;;25.30;99.90;;;;;;5018499;28;20266;-50
2022/08/08 12:45:09;;;;;;;3.58;1.10;;;26.00;99.90;;;;;;5017627;28;20208;-51
2022/08/08 12:48:01;;;;;;;2.42;0.90;;;26.60;99.90;;;;;;5045144;28;20209;-51
2022/08/08 12:50:56;;;;;;;1.87;1.23;;;27.90;99.90;;;;;;5019125;28;20315;-51
2022/08/08 12:53:27;;;;;;;1.85;0.70;;;28.80;99.90;;;;;;5018543;28;20279;-50
2022/08/08 12:56:09;;;;;;;2.60;0.90;;;29.40;99.90;;;;;;5019656;28;20609;-51
2022/08/08 12:58:49;;;;;;;3.07;0.80;;;27.60;99.90;;;;;;5019347;28;20202;-50
2022/08/08 13:01:17;;;;;;;2.57;0.93;;;26.60;99.90;;;;;;5018886;28;20215;-50
2022/08/08 13:04:14;;;;;;;2.23;0.83;;;26.50;99.90;;;;;;5019870;28;20201;-51
2022/08/08 13:07:08;;;;;;;1.27;0.60;;;28.50;99.90;;;;;;5020095;28;20574;-51
2022/08/08 13:09:45;;;;;;;1.63;0.70;;;28.20;99.90;;;;;;5018907;28;20939;-49
2022/08/08 13:12:34;;;;;;;1.00;0.68;;;28.10;99.90;;;;;;5019196;28;20224;-50
2022/08/08 13:15:06;;;;;;;1.30;0.60;;;28.60;99.90;;;;;;5019585;28;20211;-51
2022/08/08 13:17:34;;;;;;;1.40;0.67;;;28.90;99.90;;;;;;5017615;28;20240;-51
2022/08/08 13:20:22;;;;;;;2.70;0.60;;;28.90;99.90;;;;;;5017915;28;20212;-53
2022/08/08 13:22:55;;;;;;;3.63;0.70;;;28.70;99.90;;;;;;5018850;28;20220;-52
2022/08/08 13:25:42;;;;;;;1.40;0.80;;;28.30;99.90;;;;;;5019743;28;20223;-52
2022/08/08 13:28:26;;;;;;;1.60;0.80;;;28.40;99.90;;;;;;5019377;28;20215;-49
2022/08/08 13:30:55;;;;;;;1.43;0.80;;;26.50;99.90;;;;;;5018881;28;20246;-51
2022/08/08 13:33:24;;;;;;;2.20;0.70;;;26.60;99.90;;;;;;5017420;28;20221;-53
2022/08/08 13:35:54;;;;;;;0.77;0.60;;;27.60;99.90;;;;;;5018355;28;20251;-52
2022/08/08 13:38:22;;;;;;;2.00;1.20;;;27.40;99.90;;;;;;5019442;28;20239;-50
2022/08/08 13:40:53;;;;;;;3.70;0.63;;;26.10;99.90;;;;;;5018994;28;20294;-51
2022/08/08 13:43:21;;;;;;;1.55;0.80;;;26.40;99.90;;;;;;5017313;28;20213;-51
2022/08/08 13:45:51;;;;;;;1.83;0.65;;;26.10;99.90;;;;;;5019608;28;20213;-50
2022/08/08 13:48:19;;;;;;;2.47;0.80;;;27.20;99.90;;;;;;5017933;28;20209;-54
2022/08/08 13:50:52;;;;;;;4.38;0.80;;;28.50;99.90;;;;;;5019577;28;20229;-51
2022/08/08 13:53:28;;;;;;;2.95;0.88;;;28.00;99.90;;;;;;5019142;28;20241;-51
2022/08/08 13:56:03;;;;;;;1.85;0.80;;;26.90;99.90;;;;;;5018988;28;20201;-51
2022/08/08 13:58:31;;;;;;;2.50;1.20;;;26.70;99.90;;;;;;5016492;28;20557;-51
2022/08/08 14:01:12;;;;;;;2.45;0.82;;;27.00;99.90;;;;;;5018796;28;20732;-53
2022/08/08 14:03:56;;;;;;;2.45;0.95;;;27.90;99.90;;;;;;5018544;28;20209;-50
2022/08/08 14:06:24;;;;;;;0.73;0.65;;;28.10;99.90;;;;;;5019709;28;20232;-52
2022/08/08 14:09:00;;;;;;;1.90;0.77;;;27.00;99.90;;;;;;5019206;28;20609;-52
2022/08/08 14:11:47;;;;;;;1.10;0.63;;;27.00;99.90;;;;;;5017872;28;20753;-52
2022/08/08 14:14:15;;;;;;;5.15;1.13;;;27.70;99.90;;;;;;5018795;28;20220;-52